createdAt,value
2019-05-17T00:00:17.469Z,8.36
2019-05-17T00:03:06.802Z,8.30
2019-05-17T00:05:53.439Z,8.44
2019-05-17T00:08:41.119Z,8.31
2019-05-17T00:11:29.035Z,8.13
2019-05-17T00:14:16.974Z,8.11
2019-05-17T00:17:06.674Z,8.23
2019-05-17T00:19:53.704Z,8.17
2019-05-17T00:22:41.485Z,8.17
2019-05-17T00:25:29.142Z,8.08
2019-05-17T00:28:16.595Z,8.19
2019-05-17T00:31:06.603Z,8.03
2019-05-17T00:33:53.800Z,7.98
2019-05-17T00:36:41.753Z,8.08
2019-05-17T00:39:28.995Z,8.13
2019-05-17T00:42:17.002Z,7.98
2019-05-17T00:45:06.797Z,8.17
2019-05-17T00:47:54.507Z,8.15
2019-05-17T00:50:42.147Z,8.11
2019-05-17T00:53:29.933Z,8.18
2019-05-17T00:56:17.272Z,8.12
2019-05-17T00:59:04.747Z,8.09
2019-05-17T01:01:52.787Z,7.90
2019-05-17T01:04:40.233Z,7.90
2019-05-17T01:07:27.716Z,7.95
2019-05-17T01:10:16.623Z,7.91
2019-05-17T01:13:06.899Z,7.72
2019-05-17T01:15:53.443Z,7.67
2019-05-17T01:18:40.808Z,7.74
2019-05-17T01:21:28.382Z,7.92
2019-05-17T01:24:17.262Z,7.87
2019-05-17T01:27:06.541Z,7.66
2019-05-17T01:29:54.139Z,7.67
2019-05-17T01:32:41.343Z,7.71
2019-05-17T01:35:28.724Z,7.56
2019-05-17T01:38:17.708Z,7.47
2019-05-17T01:41:06.959Z,7.53
2019-05-17T01:43:56.789Z,7.35
2019-05-17T01:46:43.583Z,7.21
2019-05-17T01:49:30.994Z,7.35
2019-05-17T01:52:18.138Z,7.37
2019-05-17T01:55:06.593Z,7.26
2019-05-17T01:57:56.334Z,7.35
2019-05-17T02:00:43.442Z,7.37
2019-05-17T02:03:30.880Z,7.54
2019-05-17T02:06:18.551Z,7.26
2019-05-17T02:09:07.285Z,7.25
2019-05-17T02:11:57.066Z,7.15
2019-05-17T02:14:46.771Z,7.01
2019-05-17T02:17:34.274Z,6.90
2019-05-17T02:20:22.546Z,7.09
2019-05-17T02:23:09.999Z,7.06
2019-05-17T02:25:57.735Z,7.01
2019-05-17T02:28:45.721Z,7.06
2019-05-17T02:31:34.093Z,7.02
2019-05-17T02:34:23.223Z,6.94
2019-05-17T02:37:13.440Z,6.94
2019-05-17T02:40:04.516Z,7.01
2019-05-17T02:42:49.350Z,6.83
2019-05-17T02:45:36.879Z,6.72
2019-05-17T02:48:24.328Z,6.64
2019-05-17T02:51:13.081Z,6.45
2019-05-17T02:54:04.083Z,6.46
2019-05-17T02:56:53.681Z,6.50
2019-05-17T02:59:39.503Z,6.30
2019-05-17T03:02:28.001Z,6.63
2019-05-17T03:05:18.377Z,6.60
2019-05-17T03:08:06.211Z,6.72
2019-05-17T03:10:54.030Z,6.70
2019-05-17T03:13:43.357Z,6.61
2019-05-17T03:16:33.587Z,6.68
2019-05-17T03:19:19.231Z,6.77
2019-05-17T03:22:07.901Z,6.72
2019-05-17T03:24:55.844Z,6.91
2019-05-17T03:27:43.566Z,6.79
2019-05-17T03:30:36.639Z,6.78
2019-05-17T03:33:25.852Z,6.70
2019-05-17T03:36:15.961Z,6.52
2019-05-17T03:39:02.883Z,6.59
2019-05-17T03:41:48.447Z,6.38
2019-05-17T03:44:35.919Z,6.46
2019-05-17T03:47:23.360Z,6.32
2019-05-17T03:50:13.407Z,6.41
2019-05-17T03:53:02.394Z,6.54
2019-05-17T03:55:49.264Z,6.62
2019-05-17T03:58:36.780Z,6.56
2019-05-17T04:01:24.468Z,6.50
2019-05-17T04:04:13.381Z,6.66
2019-05-17T04:07:03.405Z,6.59
2019-05-17T04:09:53.207Z,6.40
2019-05-17T04:12:39.074Z,6.59
2019-05-17T04:15:26.476Z,6.60
2019-05-17T04:18:13.923Z,6.74
2019-05-17T04:21:03.416Z,6.72
2019-05-17T04:23:53.590Z,6.83
2019-05-17T04:26:43.468Z,6.85
2019-05-17T04:29:29.156Z,7.08
2019-05-17T04:32:16.262Z,7.14
2019-05-17T04:35:03.998Z,7.03
2019-05-17T04:37:53.108Z,6.92
2019-05-17T04:40:43.182Z,7.13
2019-05-17T04:43:32.981Z,7.08
2019-05-17T04:46:23.510Z,7.25
2019-05-17T04:49:13.807Z,7.22
2019-05-17T04:52:03.145Z,7.51
2019-05-17T04:54:49.214Z,7.63
2019-05-17T04:57:36.709Z,7.79
2019-05-17T05:00:24.317Z,8.03
2019-05-17T05:03:12.853Z,8.76
2019-05-17T05:06:02.933Z,9.87
2019-05-17T05:08:52.703Z,11.00
2019-05-17T05:11:51.843Z,11.70
2019-05-17T05:14:27.890Z,12.40
2019-05-17T05:17:15.555Z,13.40
2019-05-17T05:20:03.153Z,14.02
2019-05-17T05:22:52.676Z,14.53
2019-05-17T05:25:39.964Z,15.22
2019-05-17T05:28:27.648Z,15.60
2019-05-17T05:31:14.860Z,15.94
2019-05-17T05:34:02.229Z,16.63
2019-05-17T05:36:52.349Z,17.37
2019-05-17T05:39:41.295Z,17.59
2019-05-17T05:42:28.228Z,17.46
2019-05-17T05:45:16.489Z,17.98
2019-05-17T05:48:04.510Z,17.31
2019-05-17T05:50:52.136Z,17.24
2019-05-17T05:53:41.949Z,16.77
2019-05-17T05:56:29.409Z,16.59
2019-05-17T05:59:17.040Z,16.80
2019-05-17T06:02:04.404Z,16.37
2019-05-17T06:04:51.967Z,16.64
2019-05-17T06:07:41.589Z,16.96
2019-05-17T06:10:28.332Z,17.29
2019-05-17T06:13:16.849Z,17.68
2019-05-17T06:16:04.822Z,18.40
2019-05-17T06:18:52.785Z,19.28
2019-05-17T06:21:42.534Z,19.69
2019-05-17T06:24:31.802Z,20.55
2019-05-17T06:27:18.780Z,21.53
2019-05-17T06:30:07.307Z,21.50
2019-05-17T06:32:54.659Z,20.68
2019-05-17T06:35:42.574Z,20.21
2019-05-17T06:38:32.654Z,21.04
2019-05-17T06:41:21.496Z,20.21
2019-05-17T06:44:08.647Z,21.05
2019-05-17T06:46:56.338Z,19.48
2019-05-17T06:49:43.675Z,19.52
2019-05-17T06:52:32.630Z,20.92
2019-05-17T06:55:20.522Z,21.67
2019-05-17T06:58:08.220Z,21.10
2019-05-17T07:00:56.892Z,20.45
2019-05-17T07:03:45.831Z,19.02
2019-05-17T07:06:34.872Z,19.15
2019-05-17T07:09:22.545Z,19.58
2019-05-17T07:12:10.593Z,19.26
2019-05-17T07:15:01.461Z,18.23
2019-05-17T07:17:47.613Z,17.65
2019-05-17T07:20:39.327Z,17.47
2019-05-17T07:23:26.338Z,17.11
2019-05-17T07:26:13.632Z,16.34
2019-05-17T07:29:01.445Z,16.84
2019-05-17T07:31:49.865Z,17.00
2019-05-17T07:34:39.575Z,17.17
2019-05-17T07:37:26.192Z,17.23
2019-05-17T07:40:15.362Z,17.52
2019-05-17T07:43:10.445Z,18.06
2019-05-17T07:45:52.403Z,18.71
2019-05-17T07:48:40.517Z,18.62
2019-05-17T07:51:30.106Z,18.43
2019-05-17T07:54:19.719Z,17.50
2019-05-17T07:57:06.851Z,16.89
2019-05-17T07:59:54.356Z,16.69
2019-05-17T08:02:41.793Z,16.27
2019-05-17T08:05:29.727Z,16.52
2019-05-17T08:08:20.565Z,16.38
2019-05-17T08:11:07.210Z,16.28
2019-05-17T08:13:54.625Z,16.66
2019-05-17T08:16:42.531Z,17.17
2019-05-17T08:19:30.002Z,17.75
2019-05-17T08:22:19.993Z,17.95
2019-05-17T08:25:06.964Z,18.09
2019-05-17T08:27:54.726Z,19.19
2019-05-17T08:30:41.782Z,19.43
2019-05-17T08:33:29.884Z,19.64
2019-05-17T08:36:17.437Z,20.34
2019-05-17T08:39:06.593Z,20.24
2019-05-17T08:41:53.567Z,19.29
2019-05-17T08:44:40.918Z,19.62
2019-05-17T08:47:30.059Z,19.51
2019-05-17T08:50:20.098Z,19.46
2019-05-17T08:53:06.927Z,18.80
2019-05-17T08:55:54.095Z,18.04
2019-05-17T08:58:41.460Z,17.54
2019-05-17T09:01:30.175Z,17.46
2019-05-17T09:04:20.045Z,17.62
2019-05-17T09:07:09.312Z,17.55
2019-05-17T09:09:55.899Z,17.55
2019-05-17T09:12:44.604Z,17.65
2019-05-17T09:15:32.367Z,17.69
2019-05-17T09:18:20.782Z,17.27
2019-05-17T09:21:09.754Z,17.60
2019-05-17T09:23:59.720Z,17.70
2019-05-17T09:26:49.267Z,17.89
2019-05-17T09:29:37.263Z,17.72
2019-05-17T09:32:24.952Z,17.36
2019-05-17T09:35:12.563Z,17.98
2019-05-17T09:38:00.633Z,18.24
2019-05-17T09:40:50.283Z,18.14
2019-05-17T09:43:37.335Z,17.71
2019-05-17T09:46:24.905Z,18.21
2019-05-17T09:49:12.276Z,18.09
2019-05-17T09:52:00.225Z,17.62
2019-05-17T09:54:50.180Z,17.56
2019-05-17T09:57:36.524Z,17.92
2019-05-17T10:00:24.190Z,17.58
2019-05-17T10:03:11.652Z,17.51
2019-05-17T10:06:00.096Z,18.10
2019-05-17T10:08:49.528Z,18.66
2019-05-17T10:11:37.003Z,19.08
2019-05-17T10:14:27.636Z,19.43
2019-05-17T10:17:13.297Z,19.27
2019-05-17T10:20:02.364Z,18.33
2019-05-17T10:22:50.473Z,18.56
2019-05-17T10:25:39.971Z,18.70
2019-05-17T10:28:26.845Z,19.15
2019-05-17T10:31:14.384Z,19.11
2019-05-17T10:34:03.636Z,19.39
2019-05-17T10:36:53.016Z,19.67
2019-05-17T10:39:42.920Z,19.34
2019-05-17T10:42:31.447Z,19.21
2019-05-17T10:45:20.126Z,18.83
2019-05-17T10:48:09.928Z,18.62
2019-05-17T10:51:00.381Z,18.44
2019-05-17T10:53:51.059Z,18.83
2019-05-17T10:56:37.291Z,19.35
2019-05-17T10:59:24.983Z,19.05
2019-05-17T11:02:12.658Z,19.25
2019-05-17T11:05:00.784Z,19.45
2019-05-17T11:07:50.384Z,19.56
2019-05-17T11:10:39.342Z,19.10
2019-05-17T11:13:27.102Z,18.98
2019-05-17T11:16:14.909Z,18.89
2019-05-17T11:19:02.065Z,18.66
2019-05-17T11:21:49.342Z,18.66
2019-05-17T11:24:36.910Z,18.64
2019-05-17T11:27:24.076Z,18.88
2019-05-17T11:30:11.655Z,19.04
2019-05-17T11:32:59.192Z,18.85
2019-05-17T11:35:46.913Z,18.68
2019-05-17T11:38:34.364Z,18.71
2019-05-17T11:41:22.108Z,19.00
2019-05-17T11:44:10.044Z,18.95
2019-05-17T11:46:57.385Z,18.89
2019-05-17T11:49:45.025Z,19.15
2019-05-17T11:52:32.027Z,19.06
2019-05-17T11:55:19.943Z,18.91
2019-05-17T11:58:08.350Z,19.19
2019-05-17T12:00:56.010Z,19.48
2019-05-17T12:03:43.119Z,19.53
2019-05-17T12:06:30.711Z,19.94
2019-05-17T12:09:18.359Z,19.77
2019-05-17T12:12:05.442Z,19.69
2019-05-17T12:14:53.334Z,19.57
2019-05-17T12:17:40.689Z,19.58
2019-05-17T12:20:28.099Z,19.80
2019-05-17T12:23:15.442Z,19.87
2019-05-17T12:26:02.642Z,20.20
2019-05-17T12:28:49.656Z,20.12
2019-05-17T12:31:37.552Z,20.27
2019-05-17T12:34:25.063Z,20.57
2019-05-17T12:37:12.199Z,20.54
2019-05-17T12:39:59.930Z,20.95
2019-05-17T12:42:47.598Z,20.06
2019-05-17T12:45:35.241Z,20.20
2019-05-17T12:48:22.537Z,20.52
2019-05-17T12:51:09.923Z,20.42
2019-05-17T12:53:57.587Z,20.31
2019-05-17T12:56:44.911Z,20.56
2019-05-17T12:59:32.269Z,20.97
2019-05-17T13:02:19.825Z,21.09
2019-05-17T13:05:07.536Z,21.37
2019-05-17T13:07:54.857Z,21.37
2019-05-17T13:10:42.541Z,21.47
2019-05-17T13:13:29.565Z,21.46
2019-05-17T13:16:19.133Z,21.82
2019-05-17T13:19:06.186Z,21.49
2019-05-17T13:21:53.574Z,21.80
2019-05-17T13:24:41.214Z,22.05
2019-05-17T13:27:28.688Z,21.31
2019-05-17T13:30:17.704Z,21.62
2019-05-17T13:33:05.528Z,21.97
2019-05-17T13:35:52.744Z,22.02
2019-05-17T13:38:40.295Z,21.82
2019-05-17T13:41:27.927Z,22.15
2019-05-17T13:44:15.356Z,22.16
2019-05-17T13:47:02.947Z,22.17
2019-05-17T13:49:50.475Z,21.78
2019-05-17T13:52:37.846Z,21.57
2019-05-17T13:55:25.598Z,20.92
2019-05-17T13:58:13.083Z,20.32
2019-05-17T14:01:00.842Z,20.39
2019-05-17T14:03:48.291Z,20.33
2019-05-17T14:06:35.784Z,20.44
2019-05-17T14:09:23.108Z,20.52
2019-05-17T14:12:10.373Z,20.73
2019-05-17T14:14:58.139Z,20.78
2019-05-17T14:17:46.228Z,20.77
2019-05-17T14:20:33.529Z,20.46
2019-05-17T14:23:20.962Z,20.30
2019-05-17T14:26:08.750Z,20.15
2019-05-17T14:28:56.395Z,20.11
2019-05-17T14:31:45.511Z,20.22
2019-05-17T14:34:32.749Z,20.10
2019-05-17T14:37:20.827Z,20.02
2019-05-17T14:40:09.556Z,19.76
2019-05-17T14:42:57.841Z,19.85
2019-05-17T14:45:45.473Z,20.03
2019-05-17T14:48:33.027Z,20.13
2019-05-17T14:51:20.519Z,20.20
2019-05-17T14:54:08.194Z,20.20
2019-05-17T14:56:55.546Z,20.53
2019-05-17T14:59:43.138Z,20.70
2019-05-17T15:02:30.460Z,20.83
2019-05-17T15:05:19.526Z,20.91
2019-05-17T15:08:07.043Z,20.80
2019-05-17T15:10:54.595Z,20.81
2019-05-17T15:13:42.083Z,20.82
2019-05-17T15:16:29.287Z,20.77
2019-05-17T15:19:16.971Z,20.92
2019-05-17T15:22:04.487Z,21.02
2019-05-17T15:24:52.191Z,20.83
2019-05-17T15:27:39.746Z,20.98
2019-05-17T15:30:27.283Z,20.77
2019-05-17T15:33:15.124Z,20.95
2019-05-17T15:36:02.930Z,21.01
2019-05-17T15:38:50.293Z,21.05
2019-05-17T15:41:38.853Z,20.51
2019-05-17T15:44:27.107Z,20.46
2019-05-17T15:47:18.124Z,20.39
2019-05-17T15:50:06.246Z,20.21
2019-05-17T15:52:53.496Z,20.19
2019-05-17T15:55:41.551Z,20.46
2019-05-17T15:58:30.018Z,20.46
2019-05-17T16:01:17.816Z,20.36
2019-05-17T16:04:05.317Z,20.28
2019-05-17T16:06:53.012Z,20.58
2019-05-17T16:09:41.342Z,20.62
2019-05-17T16:12:28.947Z,20.63
2019-05-17T16:15:16.025Z,20.84
2019-05-17T16:18:03.484Z,21.04
2019-05-17T16:20:50.880Z,21.26
2019-05-17T16:23:38.620Z,21.36
2019-05-17T16:26:26.231Z,21.37
2019-05-17T16:29:13.884Z,21.29
2019-05-17T16:32:01.506Z,21.23
2019-05-17T16:34:49.098Z,21.03
2019-05-17T16:37:36.837Z,20.89
2019-05-17T16:40:24.412Z,20.83
2019-05-17T16:43:18.017Z,20.84
2019-05-17T16:46:01.902Z,20.90
2019-05-17T16:48:49.667Z,20.77
2019-05-17T16:51:37.261Z,20.75
2019-05-17T16:54:24.701Z,20.50
2019-05-17T16:57:12.112Z,20.12
2019-05-17T17:00:00.001Z,19.96
2019-05-17T17:02:47.396Z,19.66
2019-05-17T17:05:34.745Z,19.57
2019-05-17T17:08:22.418Z,19.45
2019-05-17T17:11:09.786Z,19.22
2019-05-17T17:13:57.631Z,18.84
2019-05-17T17:16:45.239Z,18.41
2019-05-17T17:19:33.251Z,17.58
2019-05-17T17:22:20.835Z,16.70
2019-05-17T17:25:08.611Z,16.30
2019-05-17T17:27:57.495Z,15.67
2019-05-17T17:30:46.231Z,14.19
2019-05-17T17:33:34.016Z,13.20
2019-05-17T17:36:21.394Z,12.95
2019-05-17T17:39:08.873Z,12.81
2019-05-17T17:41:56.318Z,12.79
2019-05-17T17:44:43.774Z,12.67
2019-05-17T17:47:31.247Z,12.73
2019-05-17T17:50:19.671Z,12.73
2019-05-17T17:53:07.683Z,12.72
2019-05-17T17:55:54.981Z,12.56
2019-05-17T17:58:42.375Z,12.56
2019-05-17T18:01:29.873Z,12.60
2019-05-17T18:04:17.219Z,12.66
2019-05-17T18:07:04.625Z,12.71
2019-05-17T18:09:51.997Z,12.93
2019-05-17T18:12:39.822Z,13.02
2019-05-17T18:15:42.094Z,12.92
2019-05-17T18:18:30.714Z,13.02
2019-05-17T18:21:18.295Z,13.18
2019-05-17T18:24:05.747Z,12.96
2019-05-17T18:26:53.286Z,12.97
2019-05-17T18:29:40.725Z,12.91
2019-05-17T18:32:28.201Z,12.75
2019-05-17T18:35:15.294Z,12.74
2019-05-17T18:38:03.067Z,12.62
2019-05-17T18:40:50.709Z,12.48
2019-05-17T18:43:37.973Z,12.47
2019-05-17T18:46:25.355Z,12.40
2019-05-17T18:49:12.787Z,12.46
2019-05-17T18:51:59.998Z,12.40
2019-05-17T18:54:47.481Z,12.41
2019-05-17T18:57:34.950Z,12.48
2019-05-17T19:00:22.728Z,12.54
2019-05-17T19:03:10.667Z,12.47
2019-05-17T19:05:58.361Z,12.36
2019-05-17T19:08:45.968Z,12.45
2019-05-17T19:11:34.471Z,12.37
2019-05-17T19:14:21.916Z,12.48
2019-05-17T19:17:09.822Z,12.45
2019-05-17T19:19:57.409Z,12.40
2019-05-17T19:22:44.921Z,12.48
2019-05-17T19:25:32.389Z,12.41
2019-05-17T19:28:20.038Z,12.40
2019-05-17T19:31:07.838Z,12.30
2019-05-17T19:33:56.873Z,12.37
2019-05-17T19:36:44.316Z,12.35
2019-05-17T19:39:32.010Z,12.46
2019-05-17T19:42:23.275Z,12.31
2019-05-17T19:45:11.460Z,12.17
2019-05-17T19:47:59.085Z,12.35
2019-05-17T19:50:46.542Z,12.37
2019-05-17T19:53:33.945Z,12.32
2019-05-17T19:56:21.516Z,12.41
2019-05-17T19:59:09.114Z,12.39
2019-05-17T20:01:56.432Z,12.24
2019-05-17T20:04:43.571Z,12.34
2019-05-17T20:07:37.688Z,12.45
2019-05-17T20:10:20.660Z,12.40
2019-05-17T20:13:08.217Z,12.23
2019-05-17T20:15:55.581Z,12.29
2019-05-17T20:18:42.994Z,12.28
2019-05-17T20:21:32.623Z,12.14
2019-05-17T20:24:20.953Z,12.24
2019-05-17T20:27:08.381Z,12.02
2019-05-17T20:29:55.460Z,12.00
2019-05-17T20:32:42.824Z,12.00
2019-05-17T20:35:30.385Z,12.03
2019-05-17T20:38:17.424Z,11.86
2019-05-17T20:41:04.963Z,11.94
2019-05-17T20:43:52.295Z,11.87
2019-05-17T20:46:39.669Z,11.72
2019-05-17T20:49:27.130Z,11.73
2019-05-17T20:52:14.398Z,11.89
2019-05-17T20:55:02.373Z,11.74
2019-05-17T20:57:50.019Z,11.85
2019-05-17T21:00:37.612Z,11.93
2019-05-17T21:03:25.347Z,11.73
2019-05-17T21:06:12.769Z,11.82
2019-05-17T21:09:00.254Z,11.83
2019-05-17T21:11:48.302Z,11.90
2019-05-17T21:14:35.579Z,11.88
2019-05-17T21:17:23.504Z,11.83
2019-05-17T21:20:11.523Z,11.75
2019-05-17T21:22:59.265Z,11.75
2019-05-17T21:25:46.556Z,11.67
2019-05-17T21:28:34.069Z,11.62
2019-05-17T21:31:21.693Z,11.55
2019-05-17T21:34:09.015Z,11.60
2019-05-17T21:36:57.106Z,11.62
2019-05-17T21:39:44.219Z,11.59
2019-05-17T21:42:31.428Z,11.61
2019-05-17T21:45:18.481Z,11.39
2019-05-17T21:48:05.983Z,11.44
2019-05-17T21:50:55.925Z,11.20
2019-05-17T21:53:43.384Z,11.08
2019-05-17T21:56:30.940Z,11.18
2019-05-17T21:59:17.915Z,11.18
2019-05-17T22:02:05.809Z,10.96
2019-05-17T22:04:52.931Z,11.25
2019-05-17T22:07:40.354Z,11.28
2019-05-17T22:10:27.704Z,11.04
2019-05-17T22:13:14.791Z,11.14
2019-05-17T22:16:02.133Z,10.99
2019-05-17T22:18:49.794Z,11.05
2019-05-17T22:21:37.693Z,11.04
2019-05-17T22:24:25.217Z,11.11
2019-05-17T22:27:12.810Z,10.87
2019-05-17T22:30:00.181Z,10.87
2019-05-17T22:32:47.642Z,10.80
2019-05-17T22:35:35.037Z,10.99
2019-05-17T22:38:22.777Z,11.04
2019-05-17T22:41:10.271Z,10.92
2019-05-17T22:43:57.675Z,10.77
2019-05-17T22:46:45.409Z,10.92
2019-05-17T22:49:33.150Z,10.95
2019-05-17T22:52:23.393Z,10.81
2019-05-17T22:55:11.821Z,10.81
2019-05-17T22:58:01.255Z,10.73
2019-05-17T23:00:48.585Z,10.69
2019-05-17T23:03:36.029Z,10.67
2019-05-17T23:06:23.640Z,10.64
2019-05-17T23:09:11.133Z,10.62
2019-05-17T23:11:58.606Z,10.55
2019-05-17T23:14:46.107Z,10.36
2019-05-17T23:17:33.554Z,10.56
2019-05-17T23:20:21.022Z,10.65
2019-05-17T23:23:08.737Z,10.74
2019-05-17T23:25:56.991Z,10.74
2019-05-17T23:28:45.568Z,10.72
2019-05-17T23:31:32.973Z,10.66
2019-05-17T23:34:20.280Z,10.48
2019-05-17T23:37:07.892Z,10.56
2019-05-17T23:39:55.795Z,10.49
2019-05-17T23:42:43.434Z,10.60
2019-05-17T23:45:34.267Z,10.57
2019-05-17T23:48:21.561Z,10.54
2019-05-17T23:51:10.374Z,10.39
2019-05-17T23:53:58.414Z,10.38
2019-05-17T23:56:46.041Z,10.49
2019-05-17T23:59:33.396Z,10.76
